Disclaimer

Please do not use the information listed here in-flight or in-navigation, as they are not provided to us by the airports but are provided by volunteers, so they might be outdated.

Search


Regions


Airport information page

Radio informations:
Tower (TWR) - 118.5 MHz
Ground (GND) - 121.9 MHz

Airport informations:
Latitude: 39° 42' 36.73" N
Longitude: 039° 31' 37.21" E
Elevation: 3783 feet - 1153 meters
Operating hours: Remarks
Operating agency: Military-civil joint use airport
Timezone: UTC+2(+3DT) - Dates notified by NOTAM
Fuel: Aviation Gasoline (AVGAS), octane unknown.

Runway information:
11/29 - 9842 x 148 feet< - >3000 x 45 meters
13/31 - 5800 x 137 feet< - >1768 x 42 meters

Recent METARs:
LTCD 190250Z 00000KT 4000 BR NSC M04/M04 Q1025 TEMPO 1600 BCFG
LTCD 190350Z VRB02KT 3500 BR NSC M04/M04 Q1025 TEMPO TL0500 1600 BCFG
LTCD 190350Z VRB02KT 3500 BR NSC M04/M04 Q1025 TEMPO TL0500 1600 BCFG

Airport on the map: